createdAt,value
2022-09-14T00:01:29.793Z,13.58
2022-09-14T00:04:00.477Z,13.56
2022-09-14T00:06:29.354Z,13.53
2022-09-14T00:09:00.928Z,13.51
2022-09-14T00:11:30.391Z,13.47
2022-09-14T00:13:59.799Z,13.44
2022-09-14T00:16:30.096Z,13.36
2022-09-14T00:19:00.634Z,13.41
2022-09-14T00:21:29.274Z,13.27
2022-09-14T00:23:58.703Z,13.33
2022-09-14T00:26:26.886Z,13.28
2022-09-14T00:28:56.709Z,13.21
2022-09-14T00:31:25.907Z,13.27
2022-09-14T00:33:55.037Z,13.27
2022-09-14T00:36:24.802Z,13.27
2022-09-14T00:38:55.226Z,13.24
2022-09-14T00:41:27.292Z,13.18
2022-09-14T00:43:58.305Z,13.12
2022-09-14T00:46:28.259Z,13.15
2022-09-14T00:48:58.974Z,13.14
2022-09-14T00:51:27.876Z,13.03
2022-09-14T00:53:56.532Z,13.05
2022-09-14T00:56:26.643Z,13.11
2022-09-14T00:58:56.542Z,13.08
2022-09-14T01:01:24.647Z,13.14
2022-09-14T01:03:52.629Z,13.13
2022-09-14T01:06:27.415Z,13.12
2022-09-14T01:09:06.884Z,13.06
2022-09-14T01:11:48.230Z,13.02
2022-09-14T01:14:27.206Z,12.98
2022-09-14T01:17:03.552Z,12.90
2022-09-14T01:19:51.085Z,12.87
2022-09-14T01:22:22.896Z,12.84
2022-09-14T01:24:56.766Z,12.76
2022-09-14T01:27:33.082Z,12.76
2022-09-14T01:30:08.401Z,12.78
2022-09-14T01:32:41.894Z,12.73
2022-09-14T01:35:17.283Z,12.73
2022-09-14T01:37:49.241Z,12.68
2022-09-14T01:40:23.394Z,12.67
2022-09-14T01:42:56.547Z,12.53
2022-09-14T01:45:27.405Z,12.45
2022-09-14T01:47:58.439Z,12.41
2022-09-14T01:50:31.360Z,12.55
2022-09-14T01:53:06.448Z,12.60
2022-09-14T01:55:39.098Z,12.70
2022-09-14T01:58:13.625Z,12.74
2022-09-14T02:00:47.004Z,12.70
2022-09-14T02:03:18.966Z,12.76
2022-09-14T02:05:53.887Z,12.82
2022-09-14T02:08:22.069Z,13.00
2022-09-14T02:10:50.018Z,13.03
2022-09-14T02:13:19.298Z,12.99
2022-09-14T02:15:47.302Z,12.94
2022-09-14T02:18:15.233Z,12.91
2022-09-14T02:20:47.579Z,12.90
2022-09-14T02:23:15.821Z,12.82
2022-09-14T02:25:43.745Z,12.83
2022-09-14T02:28:11.694Z,12.81
2022-09-14T02:30:50.819Z,12.78
2022-09-14T02:33:25.014Z,12.77
2022-09-14T02:35:56.456Z,12.68
2022-09-14T02:38:32.573Z,12.69
2022-09-14T02:41:10.217Z,12.76
2022-09-14T02:43:45.066Z,12.73
2022-09-14T02:46:22.897Z,12.73
2022-09-14T02:49:01.066Z,12.69
2022-09-14T02:51:34.252Z,12.70
2022-09-14T02:54:07.950Z,12.70
2022-09-14T02:56:37.675Z,12.69
2022-09-14T02:59:05.794Z,12.66
2022-09-14T03:01:35.518Z,12.63
2022-09-14T03:04:04.073Z,12.61
2022-09-14T03:06:32.221Z,12.65
2022-09-14T03:09:00.150Z,12.65
2022-09-14T03:11:28.109Z,12.57
2022-09-14T03:13:56.044Z,12.61
2022-09-14T03:16:24.021Z,12.64
2022-09-14T03:18:53.378Z,12.59
2022-09-14T03:21:21.302Z,12.54
2022-09-14T03:23:51.272Z,12.56
2022-09-14T03:26:21.330Z,12.62
2022-09-14T03:28:51.957Z,12.67
2022-09-14T03:31:20.786Z,12.67
2022-09-14T03:33:53.400Z,12.67
2022-09-14T03:36:22.903Z,12.62
2022-09-14T03:38:53.002Z,12.66
2022-09-14T03:41:22.259Z,12.63
2022-09-14T03:43:50.599Z,12.68
2022-09-14T03:46:21.767Z,12.68
2022-09-14T03:48:50.350Z,12.70
2022-09-14T03:51:18.882Z,12.66
2022-09-14T03:53:48.339Z,12.67
2022-09-14T03:56:19.332Z,12.73
2022-09-14T03:58:48.517Z,12.74
2022-09-14T04:01:18.489Z,12.74
2022-09-14T04:03:47.077Z,12.78
2022-09-14T04:06:16.142Z,12.80
2022-09-14T04:08:45.923Z,12.75
2022-09-14T04:11:17.654Z,12.76
2022-09-14T04:13:45.655Z,12.73
2022-09-14T04:16:14.143Z,12.66
2022-09-14T04:18:42.062Z,12.66
2022-09-14T04:21:18.709Z,12.63
2022-09-14T04:26:37.096Z,12.63
2022-09-14T04:29:05.183Z,12.69
2022-09-14T04:31:33.842Z,12.74
2022-09-14T04:34:01.862Z,12.77
2022-09-14T04:36:31.430Z,12.83
2022-09-14T04:39:01.184Z,12.97
2022-09-14T04:41:30.304Z,13.10
2022-09-14T04:44:00.644Z,13.24
2022-09-14T04:46:30.789Z,13.36
2022-09-14T04:48:59.302Z,13.51
2022-09-14T04:51:30.832Z,13.68
2022-09-14T04:54:00.294Z,13.79
2022-09-14T04:56:29.843Z,13.98
2022-09-14T04:59:00.579Z,14.13
2022-09-14T05:01:30.312Z,14.25
2022-09-14T05:03:58.926Z,14.41
2022-09-14T05:06:29.422Z,14.58
2022-09-14T05:08:59.263Z,14.62
2022-09-14T05:11:29.062Z,14.77
2022-09-14T05:13:57.947Z,14.87
2022-09-14T05:16:28.965Z,14.99
2022-09-14T05:18:58.222Z,15.15
2022-09-14T05:21:26.724Z,15.30
2022-09-14T05:23:55.965Z,15.56
2022-09-14T05:26:24.600Z,15.78
2022-09-14T05:28:55.262Z,15.87
2022-09-14T05:31:24.343Z,15.97
2022-09-14T05:33:54.438Z,16.20
2022-09-14T05:36:22.558Z,16.16
2022-09-14T05:38:50.631Z,16.59
2022-09-14T05:41:18.687Z,16.80
2022-09-14T05:43:46.594Z,16.90
2022-09-14T05:46:16.177Z,17.04
2022-09-14T05:48:44.831Z,17.36
2022-09-14T05:51:15.899Z,17.62
2022-09-14T05:53:44.154Z,17.86
2022-09-14T05:56:13.820Z,18.05
2022-09-14T05:58:43.185Z,18.15
2022-09-14T06:01:12.878Z,18.29
2022-09-14T06:03:41.182Z,18.56
2022-09-14T06:06:10.377Z,18.62
2022-09-14T06:08:40.281Z,18.71
2022-09-14T06:11:09.925Z,18.91
2022-09-14T06:13:38.734Z,19.12
2022-09-14T06:16:08.780Z,19.21
2022-09-14T06:18:38.497Z,19.31
2022-09-14T06:21:07.744Z,19.51
2022-09-14T06:23:36.386Z,19.62
2022-09-14T06:26:06.826Z,19.80
2022-09-14T06:28:35.683Z,19.91
2022-09-14T06:31:04.629Z,20.18
2022-09-14T06:33:33.202Z,20.18
2022-09-14T06:36:03.993Z,20.35
2022-09-14T06:38:32.282Z,20.38
2022-09-14T06:41:01.886Z,20.58
2022-09-14T06:43:34.466Z,20.57
2022-09-14T06:46:04.623Z,20.72
2022-09-14T06:48:34.637Z,21.02
2022-09-14T06:51:12.738Z,20.89
2022-09-14T06:53:40.730Z,20.87
2022-09-14T06:56:08.765Z,20.94
2022-09-14T06:58:38.039Z,21.04
2022-09-14T07:01:07.020Z,21.23
2022-09-14T07:03:37.902Z,21.36
2022-09-14T07:06:07.511Z,21.47
2022-09-14T07:08:35.839Z,21.37
2022-09-14T07:11:04.600Z,21.52
2022-09-14T07:13:33.449Z,21.71
2022-09-14T07:16:03.461Z,21.82
2022-09-14T07:18:33.049Z,21.94
2022-09-14T07:21:05.853Z,21.92
2022-09-14T07:23:34.649Z,22.06
2022-09-14T07:26:05.198Z,22.26
2022-09-14T07:28:33.267Z,22.35
2022-09-14T07:31:03.061Z,22.47
2022-09-14T07:33:31.154Z,22.42
2022-09-14T07:36:06.550Z,22.69
2022-09-14T07:38:51.209Z,22.87
2022-09-14T07:41:20.552Z,22.93
2022-09-14T07:43:50.526Z,23.08
2022-09-14T07:46:20.746Z,23.17
2022-09-14T07:48:50.122Z,23.06
2022-09-14T07:51:18.111Z,23.29
2022-09-14T07:53:46.050Z,23.25
2022-09-14T07:56:16.812Z,23.46
2022-09-14T07:58:45.325Z,23.72
2022-09-14T08:01:15.413Z,23.73
2022-09-14T08:03:46.674Z,23.85
2022-09-14T08:06:16.606Z,24.00
2022-09-14T08:08:46.066Z,24.16
2022-09-14T08:11:16.628Z,24.01
2022-09-14T08:13:46.288Z,24.05
2022-09-14T08:16:15.031Z,24.20
2022-09-14T08:18:44.480Z,24.40
2022-09-14T08:21:14.422Z,24.60
2022-09-14T08:23:43.511Z,24.61
2022-09-14T08:26:13.038Z,24.65
2022-09-14T08:28:41.459Z,24.66
2022-09-14T08:31:10.982Z,24.60
2022-09-14T08:33:41.025Z,24.56
2022-09-14T08:36:12.004Z,24.30
2022-09-14T08:38:39.952Z,24.53
2022-09-14T08:41:13.413Z,24.53
2022-09-14T08:43:41.118Z,24.61
2022-09-14T08:46:16.421Z,24.84
2022-09-14T08:48:48.947Z,24.86
2022-09-14T08:51:18.893Z,24.89
2022-09-14T08:53:47.391Z,25.14
2022-09-14T08:56:19.698Z,25.30
2022-09-14T08:59:03.574Z,25.08
2022-09-14T09:01:46.126Z,24.98
2022-09-14T09:04:26.694Z,25.17
2022-09-14T09:07:02.351Z,25.32
2022-09-14T09:09:39.833Z,25.45
2022-09-14T09:12:08.451Z,25.49
2022-09-14T09:14:40.814Z,25.66
2022-09-14T09:17:16.858Z,25.66
2022-09-14T09:19:55.365Z,25.75
2022-09-14T09:22:28.974Z,25.74
2022-09-14T09:24:57.025Z,25.65
2022-09-14T09:27:26.468Z,25.75
2022-09-14T09:29:54.572Z,25.84
2022-09-14T09:32:25.004Z,26.01
2022-09-14T09:34:53.428Z,25.94
2022-09-14T09:37:25.143Z,25.85
2022-09-14T09:39:53.122Z,25.74
2022-09-14T09:42:24.255Z,25.89
2022-09-14T09:45:02.450Z,25.96
2022-09-14T09:47:33.867Z,26.02
2022-09-14T09:50:05.130Z,26.09
2022-09-14T09:52:34.858Z,26.09
2022-09-14T09:55:05.790Z,26.21
2022-09-14T09:57:35.790Z,26.12
2022-09-14T10:00:12.937Z,26.38
2022-09-14T10:02:41.634Z,26.37
2022-09-14T10:05:21.611Z,25.87
2022-09-14T10:07:57.517Z,26.10
2022-09-14T10:10:40.492Z,26.26
2022-09-14T10:13:27.048Z,26.41
2022-09-14T10:15:55.303Z,26.37
2022-09-14T10:18:24.576Z,26.39
2022-09-14T10:21:10.033Z,26.13
2022-09-14T10:23:40.441Z,26.40
2022-09-14T10:26:32.398Z,26.22
2022-09-14T10:29:29.718Z,26.11
2022-09-14T10:32:02.635Z,26.46
2022-09-14T10:34:30.746Z,26.34
2022-09-14T10:37:12.891Z,26.19
2022-09-14T10:39:48.369Z,26.23
2022-09-14T10:42:26.994Z,26.27
2022-09-14T10:45:08.353Z,26.14
2022-09-14T10:48:08.639Z,26.16
2022-09-14T10:50:48.505Z,26.21
2022-09-14T10:53:32.774Z,26.39
2022-09-14T10:56:07.513Z,26.11
2022-09-14T10:59:00.136Z,26.39
2022-09-14T11:01:43.334Z,26.24
2022-09-14T11:04:25.201Z,26.38
2022-09-14T11:06:59.472Z,26.17
2022-09-14T11:09:31.671Z,26.10
2022-09-14T11:12:08.014Z,26.12
2022-09-14T11:14:58.535Z,26.30
2022-09-14T11:17:58.006Z,26.11
2022-09-14T11:20:42.616Z,26.21
2022-09-14T11:23:24.454Z,26.05
2022-09-14T11:25:57.970Z,26.23
2022-09-14T11:28:32.190Z,26.33
2022-09-14T11:31:07.662Z,26.24
2022-09-14T11:33:41.177Z,26.04
2022-09-14T11:36:17.695Z,25.53
2022-09-14T11:38:51.445Z,25.94
2022-09-14T11:41:25.101Z,26.01
2022-09-14T11:43:59.136Z,26.24
2022-09-14T11:46:33.720Z,26.27
2022-09-14T11:49:12.512Z,26.26
2022-09-14T11:51:45.336Z,26.20
2022-09-14T11:54:17.293Z,26.16
2022-09-14T11:56:49.366Z,26.10
2022-09-14T11:59:50.495Z,26.08
2022-09-14T12:02:55.105Z,25.99
2022-09-14T12:05:34.937Z,25.61
2022-09-14T12:08:22.499Z,25.74
2022-09-14T12:11:05.334Z,25.83
2022-09-14T12:13:33.465Z,25.76
2022-09-14T12:16:08.007Z,25.85
2022-09-14T12:18:38.200Z,25.89
2022-09-14T12:21:09.406Z,25.94
2022-09-14T12:23:48.185Z,25.92
2022-09-14T12:26:33.017Z,25.87
2022-09-14T12:29:06.834Z,25.45
2022-09-14T12:31:56.457Z,25.17
2022-09-14T12:34:25.449Z,25.14
2022-09-14T12:37:25.734Z,25.22
2022-09-14T12:40:33.465Z,25.03
2022-09-14T12:43:49.427Z,24.97
2022-09-14T12:46:48.936Z,24.85
2022-09-14T12:49:36.668Z,24.86
2022-09-14T12:52:18.168Z,24.74
2022-09-14T12:55:00.572Z,24.71
2022-09-14T12:57:35.172Z,24.86
2022-09-14T13:00:13.050Z,24.81
2022-09-14T13:03:14.050Z,24.80
2022-09-14T13:05:44.857Z,24.86
2022-09-14T13:08:13.967Z,24.94
2022-09-14T13:10:47.636Z,25.09
2022-09-14T13:13:18.763Z,24.82
2022-09-14T13:15:53.426Z,24.72
2022-09-14T13:18:34.742Z,24.59
2022-09-14T13:21:05.119Z,24.54
2022-09-14T13:23:38.037Z,24.54
2022-09-14T13:26:14.309Z,24.42
2022-09-14T13:28:44.781Z,24.41
2022-09-14T13:31:15.909Z,24.17
2022-09-14T13:33:51.185Z,24.25
2022-09-14T13:36:22.769Z,24.53
2022-09-14T13:38:51.702Z,24.34
2022-09-14T13:41:22.953Z,24.23
2022-09-14T13:43:54.402Z,24.13
2022-09-14T13:46:23.372Z,24.30
2022-09-14T13:48:54.201Z,24.05
2022-09-14T13:51:25.799Z,24.15
2022-09-14T13:53:55.791Z,23.97
2022-09-14T13:56:26.945Z,23.95
2022-09-14T13:59:17.842Z,23.76
2022-09-14T14:01:54.014Z,23.71
2022-09-14T14:04:30.685Z,24.01
2022-09-14T14:07:16.830Z,23.97
2022-09-14T14:09:50.767Z,23.91
2022-09-14T14:12:27.587Z,23.66
2022-09-14T14:15:00.474Z,23.49
2022-09-14T14:17:37.989Z,23.51
2022-09-14T14:20:35.342Z,23.65
2022-09-14T14:23:21.215Z,23.44
2022-09-14T14:25:54.171Z,23.57
2022-09-14T14:28:26.052Z,23.46
2022-09-14T14:30:54.622Z,23.37
2022-09-14T14:33:23.230Z,23.29
2022-09-14T14:35:54.484Z,23.42
2022-09-14T14:38:23.442Z,23.40
2022-09-14T14:40:52.331Z,23.36
2022-09-14T14:43:23.613Z,23.18
2022-09-14T14:45:54.647Z,23.16
2022-09-14T14:48:23.608Z,23.10
2022-09-14T14:50:55.757Z,23.02
2022-09-14T14:53:23.958Z,22.93
2022-09-14T14:55:52.518Z,22.94
2022-09-14T14:58:23.086Z,22.88
2022-09-14T15:00:51.838Z,22.77
2022-09-14T15:03:20.053Z,22.78
2022-09-14T15:05:52.926Z,22.83
2022-09-14T15:08:21.165Z,22.69
2022-09-14T15:10:49.743Z,22.60
2022-09-14T15:13:17.710Z,22.66
2022-09-14T15:15:45.769Z,22.52
2022-09-14T15:18:13.692Z,22.48
2022-09-14T15:20:41.693Z,22.52
2022-09-14T15:23:14.164Z,22.51
2022-09-14T15:25:42.093Z,22.44
2022-09-14T15:28:09.985Z,22.54
2022-09-14T15:30:37.931Z,22.49
2022-09-14T15:33:05.947Z,22.49
2022-09-14T15:35:33.868Z,22.59
2022-09-14T15:38:01.775Z,22.53
2022-09-14T15:40:31.092Z,22.39
2022-09-14T15:42:59.436Z,22.43
2022-09-14T15:45:27.525Z,22.62
2022-09-14T15:47:55.734Z,22.64
2022-09-14T15:50:23.824Z,22.62
2022-09-14T15:52:51.717Z,22.60
2022-09-14T15:55:19.635Z,22.55
2022-09-14T15:57:48.952Z,22.56
2022-09-14T16:00:17.083Z,22.55
2022-09-14T16:02:45.026Z,22.48
2022-09-14T16:05:13.573Z,22.46
2022-09-14T16:07:41.658Z,22.49
2022-09-14T16:10:10.550Z,22.40
2022-09-14T16:12:38.450Z,22.19
2022-09-14T16:15:09.682Z,22.26
2022-09-14T16:17:37.617Z,22.29
2022-09-14T16:20:08.778Z,22.25
2022-09-14T16:22:36.867Z,22.17
2022-09-14T16:25:05.189Z,22.10
2022-09-14T16:27:33.261Z,22.01
2022-09-14T16:30:01.168Z,21.90
2022-09-14T16:32:30.437Z,21.86
2022-09-14T16:34:58.370Z,21.76
2022-09-14T16:37:26.526Z,21.69
2022-09-14T16:39:54.619Z,21.55
2022-09-14T16:42:22.633Z,21.45
2022-09-14T16:44:50.539Z,21.41
2022-09-14T16:47:18.469Z,21.17
2022-09-14T16:49:47.786Z,21.07
2022-09-14T16:52:15.682Z,21.04
2022-09-14T16:54:43.719Z,20.91
2022-09-14T16:57:11.646Z,20.83
2022-09-14T16:59:39.925Z,20.70
2022-09-14T17:02:07.932Z,20.52
2022-09-14T17:04:35.880Z,20.41
2022-09-14T17:07:05.176Z,20.34
2022-09-14T17:09:34.394Z,20.25
2022-09-14T17:12:02.354Z,20.17
2022-09-14T17:14:32.410Z,20.07
2022-09-14T17:17:00.891Z,19.99
2022-09-14T17:19:28.954Z,19.99
2022-09-14T17:21:56.974Z,19.98
2022-09-14T17:24:26.830Z,19.81
2022-09-14T17:26:54.755Z,19.87
2022-09-14T17:29:22.813Z,19.92
2022-09-14T17:31:50.844Z,20.04
2022-09-14T17:34:19.090Z,20.02
2022-09-14T17:36:47.017Z,19.91
2022-09-14T17:39:15.684Z,19.85
2022-09-14T17:41:45.218Z,19.81
2022-09-14T17:44:14.539Z,19.61
2022-09-14T17:46:53.066Z,19.43
2022-09-14T17:49:23.023Z,19.33
2022-09-14T17:51:51.640Z,19.30
2022-09-14T17:54:20.091Z,19.30
2022-09-14T17:56:49.521Z,19.37
2022-09-14T17:59:20.189Z,19.45
2022-09-14T18:01:48.779Z,19.47
2022-09-14T18:04:17.540Z,19.56
2022-09-14T18:06:46.699Z,19.53
2022-09-14T18:09:16.849Z,19.45
2022-09-14T18:11:45.385Z,19.38
2022-09-14T18:14:16.059Z,19.39
2022-09-14T18:16:45.804Z,19.44
2022-09-14T18:19:14.271Z,19.49
2022-09-14T18:21:42.979Z,19.56
2022-09-14T18:24:12.282Z,19.58
2022-09-14T18:26:40.197Z,19.58
2022-09-14T18:29:08.341Z,19.54
2022-09-14T18:31:38.268Z,19.50
2022-09-14T18:34:08.389Z,19.56
2022-09-14T18:36:37.066Z,19.54
2022-09-14T18:39:05.362Z,19.52
2022-09-14T18:41:34.231Z,19.38
2022-09-14T18:44:02.861Z,19.51
2022-09-14T18:46:30.935Z,19.52
2022-09-14T18:49:02.368Z,19.37
2022-09-14T18:51:32.553Z,19.42
2022-09-14T18:54:03.303Z,19.29
2022-09-14T18:56:33.388Z,19.37
2022-09-14T18:59:02.134Z,19.33
2022-09-14T19:01:30.142Z,19.23
2022-09-14T19:03:58.284Z,19.19
2022-09-14T19:06:27.618Z,19.16
2022-09-14T19:08:55.665Z,19.07
2022-09-14T19:11:26.774Z,19.08
2022-09-14T19:13:57.283Z,19.01
2022-09-14T19:16:25.610Z,19.00
2022-09-14T19:18:53.599Z,19.12
2022-09-14T19:21:24.179Z,19.13
2022-09-14T19:24:00.545Z,19.12
2022-09-14T19:26:30.905Z,19.11
2022-09-14T19:29:01.533Z,19.02
2022-09-14T19:31:30.815Z,19.05
2022-09-14T19:33:59.128Z,19.00
2022-09-14T19:36:28.493Z,18.94
2022-09-14T19:39:01.867Z,18.95
2022-09-14T19:41:30.791Z,19.02
2022-09-14T19:43:58.985Z,18.99
2022-09-14T19:46:27.542Z,18.97
2022-09-14T19:48:55.673Z,18.90
2022-09-14T19:51:26.137Z,18.89
2022-09-14T19:53:56.154Z,18.89
2022-09-14T19:56:27.674Z,18.91
2022-09-14T19:58:58.396Z,18.95
2022-09-14T20:01:27.814Z,18.87
2022-09-14T20:03:56.254Z,18.79
2022-09-14T20:06:26.687Z,18.65
2022-09-14T20:08:57.487Z,18.62
2022-09-14T20:11:28.913Z,18.48
2022-09-14T20:13:58.112Z,18.35
2022-09-14T20:16:29.668Z,18.28
2022-09-14T20:18:59.724Z,18.37
2022-09-14T20:21:28.573Z,18.31
2022-09-14T20:24:15.112Z,18.32
2022-09-14T20:26:46.489Z,18.24
2022-09-14T20:29:15.246Z,18.21
2022-09-14T20:31:43.727Z,18.10
2022-09-14T20:34:12.873Z,18.04
2022-09-14T20:36:41.395Z,17.96
2022-09-14T20:39:09.568Z,17.80
2022-09-14T20:41:37.726Z,17.88
2022-09-14T20:44:07.474Z,17.83
2022-09-14T20:46:39.184Z,17.85
2022-09-14T20:49:09.779Z,17.80
2022-09-14T20:51:38.162Z,17.72
2022-09-14T20:54:07.070Z,17.77
2022-09-14T20:56:36.475Z,17.78
2022-09-14T20:59:08.497Z,17.78
2022-09-14T21:01:38.881Z,17.79
2022-09-14T21:04:08.569Z,17.75
2022-09-14T21:06:38.082Z,17.74
2022-09-14T21:09:06.415Z,17.70
2022-09-14T21:11:34.926Z,17.77
2022-09-14T21:14:03.389Z,17.80
2022-09-14T21:16:34.413Z,17.82
2022-09-14T21:19:04.406Z,17.85
2022-09-14T21:21:32.885Z,17.96
2022-09-14T21:24:01.340Z,17.98
2022-09-14T21:26:34.077Z,17.91
2022-09-14T21:29:03.619Z,17.95
2022-09-14T21:31:33.818Z,17.86
2022-09-14T21:34:03.337Z,17.93
2022-09-14T21:36:34.727Z,17.89
2022-09-14T21:39:06.662Z,17.93
2022-09-14T21:41:34.690Z,17.98
2022-09-14T21:44:03.074Z,17.99
2022-09-14T21:46:32.584Z,18.07
2022-09-14T21:49:00.974Z,18.02
2022-09-14T21:51:30.971Z,17.95
2022-09-14T21:54:00.324Z,17.94
2022-09-14T21:56:30.580Z,17.91
2022-09-14T21:59:00.643Z,17.81
2022-09-14T22:01:30.254Z,17.74
2022-09-14T22:04:00.017Z,17.75
2022-09-14T22:06:30.061Z,17.78
2022-09-14T22:08:59.970Z,17.80
2022-09-14T22:11:30.185Z,17.72
2022-09-14T22:13:59.926Z,17.74
2022-09-14T22:16:29.895Z,17.81
2022-09-14T22:19:01.039Z,17.85
2022-09-14T22:21:30.071Z,17.77
2022-09-14T22:24:01.296Z,17.66
2022-09-14T22:26:31.512Z,17.56
2022-09-14T22:29:00.590Z,17.55
2022-09-14T22:31:29.940Z,17.62
2022-09-14T22:33:59.970Z,17.47
2022-09-14T22:36:28.632Z,17.47
2022-09-14T22:38:57.353Z,17.37
2022-09-14T22:41:26.141Z,17.36
2022-09-14T22:43:55.393Z,17.36
2022-09-14T22:46:24.790Z,17.34
2022-09-14T22:48:53.429Z,17.36
2022-09-14T22:51:25.151Z,17.36
2022-09-14T22:53:53.910Z,17.27
2022-09-14T22:56:23.848Z,17.23
2022-09-14T22:58:52.556Z,17.25
2022-09-14T23:01:23.125Z,17.23
2022-09-14T23:03:55.635Z,17.33
2022-09-14T23:06:27.157Z,17.36
2022-09-14T23:08:55.051Z,17.42
2022-09-14T23:11:23.090Z,17.36
2022-09-14T23:13:51.382Z,17.32
2022-09-14T23:16:21.471Z,17.33
2022-09-14T23:18:52.366Z,17.29
2022-09-14T23:21:20.723Z,17.22
2022-09-14T23:23:53.411Z,17.11
2022-09-14T23:26:22.234Z,17.08
2022-09-14T23:28:54.235Z,17.07
2022-09-14T23:31:23.009Z,17.13
2022-09-14T23:33:52.269Z,17.14
2022-09-14T23:36:20.681Z,17.18
2022-09-14T23:38:49.209Z,17.12
2022-09-14T23:41:19.898Z,17.12
2022-09-14T23:43:48.542Z,17.04
2022-09-14T23:46:17.719Z,16.96
2022-09-14T23:48:46.027Z,16.87
2022-09-14T23:51:14.850Z,16.90
2022-09-14T23:53:42.815Z,16.81
2022-09-14T23:56:11.807Z,16.81
2022-09-14T23:58:42.419Z,16.82
